sensor_id;sensor_type;location;lat;lon;timestamp;P1;durP1;ratioP1;P2;durP2;ratioP2
7495;SDS011;3789;47.064;15.482;2022-09-13T00:01:34;5.30;;;4.50;;
7495;SDS011;3789;47.064;15.482;2022-09-13T00:04:05;4.60;;;4.10;;
7495;SDS011;3789;47.064;15.482;2022-09-13T00:06:34;4.70;;;3.93;;
7495;SDS011;3789;47.064;15.482;2022-09-13T00:09:03;4.57;;;4.17;;
7495;SDS011;3789;47.064;15.482;2022-09-13T00:11:30;5.93;;;4.17;;
7495;SDS011;3789;47.064;15.482;2022-09-13T00:14:05;4.63;;;4.23;;
7495;SDS011;3789;47.064;15.482;2022-09-13T00:16:34;4.43;;;4.00;;
7495;SDS011;3789;47.064;15.482;2022-09-13T00:19:04;4.70;;;3.97;;
7495;SDS011;3789;47.064;15.482;2022-09-13T00:21:32;5.40;;;4.90;;
7495;SDS011;3789;47.064;15.482;2022-09-13T00:24:01;5.87;;;4.80;;
7495;SDS011;3789;47.064;15.482;2022-09-13T00:26:30;5.20;;;4.27;;
7495;SDS011;3789;47.064;15.482;2022-09-13T00:28:58;6.03;;;4.70;;
7495;SDS011;3789;47.064;15.482;2022-09-13T00:31:30;4.80;;;4.30;;
7495;SDS011;3789;47.064;15.482;2022-09-13T00:33:58;5.57;;;4.70;;
7495;SDS011;3789;47.064;15.482;2022-09-13T00:36:34;4.87;;;4.33;;
7495;SDS011;3789;47.064;15.482;2022-09-13T00:39:03;5.23;;;4.20;;
7495;SDS011;3789;47.064;15.482;2022-09-13T00:41:35;4.57;;;4.10;;
7495;SDS011;3789;47.064;15.482;2022-09-13T00:47:16;5.10;;;4.13;;
7495;SDS011;3789;47.064;15.482;2022-09-13T00:53:17;4.67;;;4.13;;
7495;SDS011;3789;47.064;15.482;2022-09-13T00:58:24;5.00;;;4.50;;
7495;SDS011;3789;47.064;15.482;2022-09-13T01:00:54;5.23;;;4.10;;
7495;SDS011;3789;47.064;15.482;2022-09-13T01:03:25;5.00;;;4.23;;
7495;SDS011;3789;47.064;15.482;2022-09-13T01:05:57;5.33;;;4.43;;
7495;SDS011;3789;47.064;15.482;2022-09-13T01:08:29;5.77;;;4.80;;
7495;SDS011;3789;47.064;15.482;2022-09-13T01:10:58;6.17;;;4.23;;
7495;SDS011;3789;47.064;15.482;2022-09-13T01:13:30;6.70;;;5.37;;
7495;SDS011;3789;47.064;15.482;2022-09-13T01:15:59;4.57;;;4.00;;
7495;SDS011;3789;47.064;15.482;2022-09-13T01:18:27;6.00;;;3.93;;
7495;SDS011;3789;47.064;15.482;2022-09-13T01:34:50;6.23;;;4.33;;
7495;SDS011;3789;47.064;15.482;2022-09-13T01:37:28;4.30;;;3.90;;
7495;SDS011;3789;47.064;15.482;2022-09-13T01:40:34;4.93;;;3.50;;
7495;SDS011;3789;47.064;15.482;2022-09-13T01:43:22;3.80;;;3.50;;
7495;SDS011;3789;47.064;15.482;2022-09-13T01:45:58;4.00;;;3.60;;
7495;SDS011;3789;47.064;15.482;2022-09-13T01:57:00;4.30;;;3.90;;
7495;SDS011;3789;47.064;15.482;2022-09-13T01:59:48;4.93;;;4.43;;
7495;SDS011;3789;47.064;15.482;2022-09-13T02:08:36;5.60;;;4.23;;
7495;SDS011;3789;47.064;15.482;2022-09-13T02:11:06;4.17;;;3.60;;
7495;SDS011;3789;47.064;15.482;2022-09-13T02:13:38;4.47;;;4.00;;
7495;SDS011;3789;47.064;15.482;2022-09-13T02:16:13;4.60;;;3.60;;
7495;SDS011;3789;47.064;15.482;2022-09-13T02:18:48;4.87;;;3.87;;
7495;SDS011;3789;47.064;15.482;2022-09-13T02:21:21;6.13;;;4.00;;
7495;SDS011;3789;47.064;15.482;2022-09-13T02:24:00;4.13;;;3.73;;
7495;SDS011;3789;47.064;15.482;2022-09-13T02:26:36;4.90;;;3.70;;
7495;SDS011;3789;47.064;15.482;2022-09-13T02:29:07;4.90;;;4.03;;
7495;SDS011;3789;47.064;15.482;2022-09-13T02:31:40;5.67;;;4.17;;
7495;SDS011;3789;47.064;15.482;2022-09-13T02:34:14;3.90;;;3.50;;
7495;SDS011;3789;47.064;15.482;2022-09-13T02:36:47;7.87;;;3.93;;
7495;SDS011;3789;47.064;15.482;2022-09-13T02:39:16;4.70;;;3.87;;
7495;SDS011;3789;47.064;15.482;2022-09-13T02:42:32;5.70;;;3.93;;
7495;SDS011;3789;47.064;15.482;2022-09-13T02:44:44;4.83;;;3.57;;
7495;SDS011;3789;47.064;15.482;2022-09-13T02:58:33;4.67;;;4.17;;
7495;SDS011;3789;47.064;15.482;2022-09-13T03:01:14;3.87;;;3.57;;
7495;SDS011;3789;47.064;15.482;2022-09-13T03:03:41;5.50;;;4.43;;
7495;SDS011;3789;47.064;15.482;2022-09-13T03:06:10;4.40;;;4.00;;
7495;SDS011;3789;47.064;15.482;2022-09-13T03:08:37;6.13;;;4.63;;
7495;SDS011;3789;47.064;15.482;2022-09-13T03:28:15;5.57;;;4.30;;
7495;SDS011;3789;47.064;15.482;2022-09-13T03:31:06;5.17;;;4.67;;
7495;SDS011;3789;47.064;15.482;2022-09-13T03:33:56;4.90;;;3.70;;
7495;SDS011;3789;47.064;15.482;2022-09-13T03:36:44;6.97;;;4.37;;
7495;SDS011;3789;47.064;15.482;2022-09-13T03:39:28;4.67;;;4.10;;
7495;SDS011;3789;47.064;15.482;2022-09-13T03:42:20;6.77;;;4.40;;
7495;SDS011;3789;47.064;15.482;2022-09-13T03:44:49;6.50;;;4.40;;
7495;SDS011;3789;47.064;15.482;2022-09-13T03:47:20;5.07;;;4.10;;
7495;SDS011;3789;47.064;15.482;2022-09-13T03:49:51;4.63;;;3.90;;
7495;SDS011;3789;47.064;15.482;2022-09-13T03:52:20;5.03;;;4.20;;
7495;SDS011;3789;47.064;15.482;2022-09-13T03:54:48;6.70;;;4.47;;
7495;SDS011;3789;47.064;15.482;2022-09-13T03:57:19;5.80;;;4.07;;
7495;SDS011;3789;47.064;15.482;2022-09-13T03:59:48;4.70;;;4.20;;
7495;SDS011;3789;47.064;15.482;2022-09-13T04:02:17;4.93;;;4.47;;
7495;SDS011;3789;47.064;15.482;2022-09-13T04:04:45;5.13;;;3.93;;
7495;SDS011;3789;47.064;15.482;2022-09-13T04:07:17;4.77;;;4.27;;
7495;SDS011;3789;47.064;15.482;2022-09-13T04:09:46;5.97;;;4.53;;
7495;SDS011;3789;47.064;15.482;2022-09-13T04:12:14;5.90;;;4.73;;
7495;SDS011;3789;47.064;15.482;2022-09-13T04:14:42;5.63;;;3.97;;
7495;SDS011;3789;47.064;15.482;2022-09-13T04:17:10;5.10;;;4.27;;
7495;SDS011;3789;47.064;15.482;2022-09-13T04:19:38;6.30;;;4.90;;
7495;SDS011;3789;47.064;15.482;2022-09-13T04:22:06;5.70;;;4.27;;
7495;SDS011;3789;47.064;15.482;2022-09-13T04:24:33;6.67;;;4.63;;
7495;SDS011;3789;47.064;15.482;2022-09-13T04:27:01;5.50;;;4.90;;
7495;SDS011;3789;47.064;15.482;2022-09-13T04:29:30;6.53;;;4.70;;
7495;SDS011;3789;47.064;15.482;2022-09-13T04:31:58;5.43;;;4.67;;
7495;SDS011;3789;47.064;15.482;2022-09-13T04:34:25;8.13;;;4.50;;
7495;SDS011;3789;47.064;15.482;2022-09-13T04:36:53;7.57;;;4.70;;
7495;SDS011;3789;47.064;15.482;2022-09-13T04:39:21;4.93;;;4.30;;
7495;SDS011;3789;47.064;15.482;2022-09-13T04:41:50;5.20;;;4.60;;
7495;SDS011;3789;47.064;15.482;2022-09-13T04:44:20;5.40;;;4.90;;
7495;SDS011;3789;47.064;15.482;2022-09-13T04:46:50;5.43;;;4.93;;
7495;SDS011;3789;47.064;15.482;2022-09-13T04:49:17;5.93;;;4.90;;
7495;SDS011;3789;47.064;15.482;2022-09-13T04:51:45;7.77;;;5.20;;
7495;SDS011;3789;47.064;15.482;2022-09-13T04:54:13;5.83;;;5.23;;
7495;SDS011;3789;47.064;15.482;2022-09-13T04:56:42;5.70;;;5.10;;
7495;SDS011;3789;47.064;15.482;2022-09-13T04:59:10;8.47;;;5.00;;
7495;SDS011;3789;47.064;15.482;2022-09-13T05:01:38;5.00;;;4.50;;
7495;SDS011;3789;47.064;15.482;2022-09-13T05:04:06;5.90;;;4.57;;
7495;SDS011;3789;47.064;15.482;2022-09-13T05:06:34;4.80;;;4.30;;
7495;SDS011;3789;47.064;15.482;2022-09-13T05:09:02;4.30;;;3.90;;
7495;SDS011;3789;47.064;15.482;2022-09-13T05:11:30;4.23;;;3.83;;
7495;SDS011;3789;47.064;15.482;2022-09-13T05:13:58;4.57;;;4.03;;
7495;SDS011;3789;47.064;15.482;2022-09-13T05:16:27;3.90;;;3.50;;
7495;SDS011;3789;47.064;15.482;2022-09-13T05:18:56;4.83;;;3.77;;
7495;SDS011;3789;47.064;15.482;2022-09-13T05:21:23;4.87;;;3.80;;
7495;SDS011;3789;47.064;15.482;2022-09-13T05:23:53;4.07;;;3.73;;
7495;SDS011;3789;47.064;15.482;2022-09-13T05:26:24;4.90;;;3.90;;
7495;SDS011;3789;47.064;15.482;2022-09-13T05:28:53;4.47;;;4.03;;
7495;SDS011;3789;47.064;15.482;2022-09-13T05:31:21;4.87;;;4.37;;
7495;SDS011;3789;47.064;15.482;2022-09-13T05:33:55;8.37;;;4.30;;
7495;SDS011;3789;47.064;15.482;2022-09-13T05:36:25;4.67;;;3.80;;
7495;SDS011;3789;47.064;15.482;2022-09-13T05:38:53;5.70;;;3.60;;
7495;SDS011;3789;47.064;15.482;2022-09-13T05:41:40;5.43;;;4.20;;
7495;SDS011;3789;47.064;15.482;2022-09-13T05:44:07;6.23;;;4.43;;
7495;SDS011;3789;47.064;15.482;2022-09-13T05:46:39;6.60;;;4.07;;
7495;SDS011;3789;47.064;15.482;2022-09-13T05:49:07;6.63;;;4.40;;
7495;SDS011;3789;47.064;15.482;2022-09-13T05:51:34;5.40;;;4.00;;
7495;SDS011;3789;47.064;15.482;2022-09-13T05:54:01;6.57;;;4.30;;
7495;SDS011;3789;47.064;15.482;2022-09-13T05:56:29;4.75;;;3.42;;
7495;SDS011;3789;47.064;15.482;2022-09-13T05:58:57;4.13;;;3.72;;
7495;SDS011;3789;47.064;15.482;2022-09-13T06:01:26;4.43;;;3.88;;
7495;SDS011;3789;47.064;15.482;2022-09-13T06:03:55;4.20;;;3.75;;
7495;SDS011;3789;47.064;15.482;2022-09-13T06:06:24;4.88;;;3.95;;
7495;SDS011;3789;47.064;15.482;2022-09-13T06:08:51;4.30;;;3.90;;
7495;SDS011;3789;47.064;15.482;2022-09-13T06:11:20;5.65;;;4.05;;
7495;SDS011;3789;47.064;15.482;2022-09-13T06:13:47;4.95;;;4.28;;
7495;SDS011;3789;47.064;15.482;2022-09-13T06:16:14;4.75;;;3.80;;
7495;SDS011;3789;47.064;15.482;2022-09-13T06:18:42;4.35;;;3.95;;
7495;SDS011;3789;47.064;15.482;2022-09-13T06:21:11;3.55;;;3.25;;
7495;SDS011;3789;47.064;15.482;2022-09-13T06:23:44;4.82;;;3.60;;
7495;SDS011;3789;47.064;15.482;2022-09-13T06:26:13;4.07;;;3.78;;
7495;SDS011;3789;47.064;15.482;2022-09-13T06:28:41;3.78;;;3.42;;
7495;SDS011;3789;47.064;15.482;2022-09-13T06:31:10;3.75;;;3.38;;
7495;SDS011;3789;47.064;15.482;2022-09-13T06:33:39;3.78;;;3.28;;
7495;SDS011;3789;47.064;15.482;2022-09-13T06:36:10;4.68;;;3.25;;
7495;SDS011;3789;47.064;15.482;2022-09-13T06:38:44;4.47;;;3.53;;
7495;SDS011;3789;47.064;15.482;2022-09-13T06:41:15;4.35;;;3.92;;
7495;SDS011;3789;47.064;15.482;2022-09-13T06:43:55;4.72;;;4.00;;
7495;SDS011;3789;47.064;15.482;2022-09-13T06:46:24;4.10;;;3.70;;
7495;SDS011;3789;47.064;15.482;2022-09-13T06:48:53;4.68;;;3.70;;
7495;SDS011;3789;47.064;15.482;2022-09-13T06:51:21;4.47;;;3.60;;
7495;SDS011;3789;47.064;15.482;2022-09-13T06:53:50;4.18;;;3.80;;
7495;SDS011;3789;47.064;15.482;2022-09-13T06:56:19;4.68;;;3.58;;
7495;SDS011;3789;47.064;15.482;2022-09-13T06:58:48;3.65;;;3.35;;
7495;SDS011;3789;47.064;15.482;2022-09-13T07:01:19;4.53;;;3.78;;
7495;SDS011;3789;47.064;15.482;2022-09-13T07:03:47;4.03;;;3.28;;
7495;SDS011;3789;47.064;15.482;2022-09-13T07:06:17;5.18;;;3.42;;
7495;SDS011;3789;47.064;15.482;2022-09-13T07:08:48;4.00;;;3.53;;
7495;SDS011;3789;47.064;15.482;2022-09-13T07:11:17;3.70;;;3.40;;
7495;SDS011;3789;47.064;15.482;2022-09-13T07:13:53;4.68;;;3.63;;
7495;SDS011;3789;47.064;15.482;2022-09-13T07:16:22;4.25;;;3.05;;
7495;SDS011;3789;47.064;15.482;2022-09-13T07:18:51;3.67;;;3.30;;
7495;SDS011;3789;47.064;15.482;2022-09-13T07:21:19;3.85;;;3.55;;
7495;SDS011;3789;47.064;15.482;2022-09-13T07:23:48;4.60;;;3.30;;
7495;SDS011;3789;47.064;15.482;2022-09-13T07:26:16;6.32;;;3.35;;
7495;SDS011;3789;47.064;15.482;2022-09-13T07:28:44;4.03;;;3.25;;
7495;SDS011;3789;47.064;15.482;2022-09-13T07:31:17;4.25;;;3.55;;
7495;SDS011;3789;47.064;15.482;2022-09-13T07:33:46;3.92;;;3.50;;
7495;SDS011;3789;47.064;15.482;2022-09-13T07:36:18;3.75;;;3.30;;
7495;SDS011;3789;47.064;15.482;2022-09-13T07:38:45;3.35;;;3.05;;
7495;SDS011;3789;47.064;15.482;2022-09-13T07:41:14;4.07;;;3.40;;
7495;SDS011;3789;47.064;15.482;2022-09-13T07:43:43;4.22;;;3.83;;
7495;SDS011;3789;47.064;15.482;2022-09-13T07:46:11;4.70;;;3.30;;
7495;SDS011;3789;47.064;15.482;2022-09-13T07:48:41;4.20;;;3.38;;
7495;SDS011;3789;47.064;15.482;2022-09-13T07:51:10;3.88;;;3.10;;
7495;SDS011;3789;47.064;15.482;2022-09-13T07:53:42;5.15;;;3.40;;
7495;SDS011;3789;47.064;15.482;2022-09-13T07:56:17;3.28;;;3.08;;
7495;SDS011;3789;47.064;15.482;2022-09-13T07:58:46;3.60;;;3.30;;
7495;SDS011;3789;47.064;15.482;2022-09-13T08:01:22;3.35;;;3.15;;
7495;SDS011;3789;47.064;15.482;2022-09-13T08:03:51;4.82;;;3.03;;
7495;SDS011;3789;47.064;15.482;2022-09-13T08:06:19;4.18;;;3.25;;
7495;SDS011;3789;47.064;15.482;2022-09-13T08:08:47;3.35;;;3.13;;
7495;SDS011;3789;47.064;15.482;2022-09-13T08:11:16;2.75;;;2.55;;
7495;SDS011;3789;47.064;15.482;2022-09-13T08:13:54;2.90;;;2.70;;
7495;SDS011;3789;47.064;15.482;2022-09-13T08:16:22;2.95;;;2.75;;
7495;SDS011;3789;47.064;15.482;2022-09-13T08:18:51;3.50;;;2.80;;
7495;SDS011;3789;47.064;15.482;2022-09-13T08:21:20;3.22;;;2.70;;
7495;SDS011;3789;47.064;15.482;2022-09-13T08:23:47;3.05;;;2.72;;
7495;SDS011;3789;47.064;15.482;2022-09-13T08:26:15;3.72;;;3.00;;
7495;SDS011;3789;47.064;15.482;2022-09-13T08:28:42;3.40;;;3.10;;
7495;SDS011;3789;47.064;15.482;2022-09-13T08:31:11;3.67;;;3.13;;
7495;SDS011;3789;47.064;15.482;2022-09-13T08:33:44;4.03;;;3.58;;
7495;SDS011;3789;47.064;15.482;2022-09-13T08:36:12;3.72;;;3.22;;
7495;SDS011;3789;47.064;15.482;2022-09-13T08:38:44;3.60;;;3.30;;
7495;SDS011;3789;47.064;15.482;2022-09-13T08:46:44;4.32;;;3.92;;
7495;SDS011;3789;47.064;15.482;2022-09-13T08:49:19;3.85;;;3.55;;
7495;SDS011;3789;47.064;15.482;2022-09-13T08:52:45;4.43;;;3.75;;
7495;SDS011;3789;47.064;15.482;2022-09-13T08:55:17;3.92;;;3.63;;
7495;SDS011;3789;47.064;15.482;2022-09-13T08:57:54;3.85;;;3.42;;
7495;SDS011;3789;47.064;15.482;2022-09-13T09:00:34;4.32;;;3.40;;
7495;SDS011;3789;47.064;15.482;2022-09-13T09:05:48;4.13;;;3.72;;
7495;SDS011;3789;47.064;15.482;2022-09-13T09:08:26;3.90;;;3.50;;
7495;SDS011;3789;47.064;15.482;2022-09-13T09:11:01;4.38;;;3.92;;
7495;SDS011;3789;47.064;15.482;2022-09-13T09:13:51;5.15;;;3.83;;
7495;SDS011;3789;47.064;15.482;2022-09-13T09:16:31;6.97;;;3.63;;
7495;SDS011;3789;47.064;15.482;2022-09-13T09:19:07;3.95;;;3.55;;
7495;SDS011;3789;47.064;15.482;2022-09-13T09:21:43;4.57;;;3.90;;
7495;SDS011;3789;47.064;15.482;2022-09-13T09:24:22;4.10;;;3.70;;
7495;SDS011;3789;47.064;15.482;2022-09-13T09:26:56;5.03;;;3.70;;
7495;SDS011;3789;47.064;15.482;2022-09-13T09:29:39;4.43;;;4.00;;
7495;SDS011;3789;47.064;15.482;2022-09-13T09:35:14;4.90;;;3.53;;
7495;SDS011;3789;47.064;15.482;2022-09-13T09:40:42;4.75;;;3.95;;
7495;SDS011;3789;47.064;15.482;2022-09-13T09:43:11;4.07;;;3.67;;
7495;SDS011;3789;47.064;15.482;2022-09-13T09:45:46;4.50;;;3.63;;
7495;SDS011;3789;47.064;15.482;2022-09-13T09:48:15;3.65;;;3.35;;
7495;SDS011;3789;47.064;15.482;2022-09-13T09:50:49;4.75;;;3.80;;
7495;SDS011;3789;47.064;15.482;2022-09-13T09:53:21;4.22;;;3.50;;
7495;SDS011;3789;47.064;15.482;2022-09-13T09:56:42;4.38;;;3.97;;
7495;SDS011;3789;47.064;15.482;2022-09-13T09:58:42;4.10;;;3.70;;
7495;SDS011;3789;47.064;15.482;2022-09-13T10:01:24;4.25;;;3.40;;
7495;SDS011;3789;47.064;15.482;2022-09-13T10:04:14;3.80;;;3.50;;
7495;SDS011;3789;47.064;15.482;2022-09-13T10:06:45;3.88;;;3.45;;
7495;SDS011;3789;47.064;15.482;2022-09-13T10:11:53;4.35;;;3.95;;
7495;SDS011;3789;47.064;15.482;2022-09-13T10:23:06;4.10;;;3.72;;
7495;SDS011;3789;47.064;15.482;2022-09-13T10:25:36;3.72;;;3.42;;
7495;SDS011;3789;47.064;15.482;2022-09-13T10:28:05;5.05;;;3.88;;
7495;SDS011;3789;47.064;15.482;2022-09-13T10:30:46;4.32;;;3.90;;
7495;SDS011;3789;47.064;15.482;2022-09-13T10:33:26;4.90;;;3.85;;
7495;SDS011;3789;47.064;15.482;2022-09-13T10:35:56;4.30;;;3.88;;
7495;SDS011;3789;47.064;15.482;2022-09-13T10:38:34;4.00;;;3.60;;
7495;SDS011;3789;47.064;15.482;2022-09-13T10:41:19;4.07;;;3.78;;
7495;SDS011;3789;47.064;15.482;2022-09-13T10:43:55;4.75;;;4.13;;
7495;SDS011;3789;47.064;15.482;2022-09-13T10:46:26;4.35;;;3.22;;
7495;SDS011;3789;47.064;15.482;2022-09-13T10:48:59;4.88;;;3.78;;
7495;SDS011;3789;47.064;15.482;2022-09-13T10:56:49;4.00;;;3.60;;
7495;SDS011;3789;47.064;15.482;2022-09-13T10:59:24;4.35;;;3.95;;
7495;SDS011;3789;47.064;15.482;2022-09-13T11:10:52;4.22;;;3.72;;
7495;SDS011;3789;47.064;15.482;2022-09-13T11:13:20;4.00;;;3.60;;
7495;SDS011;3789;47.064;15.482;2022-09-13T11:16:25;4.38;;;3.55;;
7495;SDS011;3789;47.064;15.482;2022-09-13T11:30:20;3.90;;;3.00;;
7495;SDS011;3789;47.064;15.482;2022-09-13T11:33:14;3.70;;;3.40;;
7495;SDS011;3789;47.064;15.482;2022-09-13T11:50:12;3.70;;;3.40;;
7495;SDS011;3789;47.064;15.482;2022-09-13T11:52:55;4.35;;;3.70;;
7495;SDS011;3789;47.064;15.482;2022-09-13T11:55:27;4.68;;;2.97;;
7495;SDS011;3789;47.064;15.482;2022-09-13T11:58:03;3.17;;;2.97;;
7495;SDS011;3789;47.064;15.482;2022-09-13T12:00:56;3.90;;;3.50;;
7495;SDS011;3789;47.064;15.482;2022-09-13T12:06:08;4.63;;;3.38;;
7495;SDS011;3789;47.064;15.482;2022-09-13T12:09:34;3.30;;;3.00;;
7495;SDS011;3789;47.064;15.482;2022-09-13T12:14:27;3.25;;;3.00;;
7495;SDS011;3789;47.064;15.482;2022-09-13T12:17:14;3.13;;;2.83;;
7495;SDS011;3789;47.064;15.482;2022-09-13T12:19:58;3.42;;;3.10;;
7495;SDS011;3789;47.064;15.482;2022-09-13T12:22:28;3.30;;;3.00;;
7495;SDS011;3789;47.064;15.482;2022-09-13T12:25:02;3.28;;;2.97;;
7495;SDS011;3789;47.064;15.482;2022-09-13T12:30:17;3.08;;;2.80;;
7495;SDS011;3789;47.064;15.482;2022-09-13T12:32:46;3.30;;;3.00;;
7495;SDS011;3789;47.064;15.482;2022-09-13T12:35:23;2.92;;;2.72;;
7495;SDS011;3789;47.064;15.482;2022-09-13T12:57:34;3.42;;;3.00;;
7495;SDS011;3789;47.064;15.482;2022-09-13T13:03:12;2.80;;;2.55;;
7495;SDS011;3789;47.064;15.482;2022-09-13T13:05:46;3.17;;;2.67;;
7495;SDS011;3789;47.064;15.482;2022-09-13T13:08:23;5.15;;;3.15;;
7495;SDS011;3789;47.064;15.482;2022-09-13T13:11:13;5.05;;;3.10;;
7495;SDS011;3789;47.064;15.482;2022-09-13T13:13:42;3.22;;;2.92;;
7495;SDS011;3789;47.064;15.482;2022-09-13T13:16:29;3.40;;;3.10;;
7495;SDS011;3789;47.064;15.482;2022-09-13T13:19:03;3.30;;;3.00;;
7495;SDS011;3789;47.064;15.482;2022-09-13T13:29:12;4.00;;;2.75;;
7495;SDS011;3789;47.064;15.482;2022-09-13T13:32:04;3.17;;;2.60;;
7495;SDS011;3789;47.064;15.482;2022-09-13T13:34:40;3.05;;;2.85;;
7495;SDS011;3789;47.064;15.482;2022-09-13T13:42:46;3.08;;;2.40;;
7495;SDS011;3789;47.064;15.482;2022-09-13T13:45:18;2.88;;;2.58;;
7495;SDS011;3789;47.064;15.482;2022-09-13T13:47:54;2.80;;;2.60;;
7495;SDS011;3789;47.064;15.482;2022-09-13T13:50:32;3.45;;;2.38;;
7495;SDS011;3789;47.064;15.482;2022-09-13T13:53:18;2.85;;;2.65;;
7495;SDS011;3789;47.064;15.482;2022-09-13T13:56:14;2.65;;;2.45;;
7495;SDS011;3789;47.064;15.482;2022-09-13T13:58:47;3.28;;;2.70;;
7495;SDS011;3789;47.064;15.482;2022-09-13T14:01:20;3.40;;;2.70;;
7495;SDS011;3789;47.064;15.482;2022-09-13T14:04:16;3.47;;;3.00;;
7495;SDS011;3789;47.064;15.482;2022-09-13T14:07:06;3.05;;;2.80;;
7495;SDS011;3789;47.064;15.482;2022-09-13T14:12:25;4.05;;;3.42;;
7495;SDS011;3789;47.064;15.482;2022-09-13T14:15:09;2.60;;;2.40;;
7495;SDS011;3789;47.064;15.482;2022-09-13T14:20:23;4.45;;;3.28;;
7495;SDS011;3789;47.064;15.482;2022-09-13T14:22:50;2.88;;;2.53;;
7495;SDS011;3789;47.064;15.482;2022-09-13T14:25:36;3.20;;;2.75;;
7495;SDS011;3789;47.064;15.482;2022-09-13T14:28:03;6.68;;;3.15;;
7495;SDS011;3789;47.064;15.482;2022-09-13T14:30:36;3.30;;;2.85;;
7495;SDS011;3789;47.064;15.482;2022-09-13T14:33:04;2.88;;;2.58;;
7495;SDS011;3789;47.064;15.482;2022-09-13T14:35:42;3.10;;;2.80;;
7495;SDS011;3789;47.064;15.482;2022-09-13T14:40:36;4.55;;;3.05;;
7495;SDS011;3789;47.064;15.482;2022-09-13T14:43:18;3.47;;;2.72;;
7495;SDS011;3789;47.064;15.482;2022-09-13T14:45:48;2.42;;;2.22;;
7495;SDS011;3789;47.064;15.482;2022-09-13T14:48:37;3.45;;;2.80;;
7495;SDS011;3789;47.064;15.482;2022-09-13T14:51:19;2.78;;;2.58;;
7495;SDS011;3789;47.064;15.482;2022-09-13T14:53:55;3.10;;;2.90;;
7495;SDS011;3789;47.064;15.482;2022-09-13T14:56:31;3.38;;;2.92;;
7495;SDS011;3789;47.064;15.482;2022-09-13T14:59:12;3.20;;;3.00;;
7495;SDS011;3789;47.064;15.482;2022-09-13T15:01:49;2.90;;;2.70;;
7495;SDS011;3789;47.064;15.482;2022-09-13T15:04:16;3.28;;;2.97;;
7495;SDS011;3789;47.064;15.482;2022-09-13T15:06:44;3.70;;;2.70;;
7495;SDS011;3789;47.064;15.482;2022-09-13T15:09:13;2.85;;;2.65;;
7495;SDS011;3789;47.064;15.482;2022-09-13T15:14:23;3.15;;;2.88;;
7495;SDS011;3789;47.064;15.482;2022-09-13T15:17:13;3.00;;;2.70;;
7495;SDS011;3789;47.064;15.482;2022-09-13T15:24:51;2.70;;;2.50;;
7495;SDS011;3789;47.064;15.482;2022-09-13T15:27:21;3.05;;;2.75;;
7495;SDS011;3789;47.064;15.482;2022-09-13T15:29:58;3.03;;;2.72;;
7495;SDS011;3789;47.064;15.482;2022-09-13T15:32:30;3.15;;;2.95;;
7495;SDS011;3789;47.064;15.482;2022-09-13T15:38:25;2.95;;;2.75;;
7495;SDS011;3789;47.064;15.482;2022-09-13T15:41:00;3.35;;;3.05;;
7495;SDS011;3789;47.064;15.482;2022-09-13T15:43:27;3.22;;;2.92;;
7495;SDS011;3789;47.064;15.482;2022-09-13T15:45:56;2.95;;;2.75;;
7495;SDS011;3789;47.064;15.482;2022-09-13T15:49:06;5.10;;;3.33;;
7495;SDS011;3789;47.064;15.482;2022-09-13T15:51:18;3.00;;;2.70;;
7495;SDS011;3789;47.064;15.482;2022-09-13T15:53:45;3.50;;;3.20;;
7495;SDS011;3789;47.064;15.482;2022-09-13T15:56:13;3.08;;;2.75;;
7495;SDS011;3789;47.064;15.482;2022-09-13T15:58:43;2.92;;;2.72;;
7495;SDS011;3789;47.064;15.482;2022-09-13T16:01:13;3.13;;;2.88;;
7495;SDS011;3789;47.064;15.482;2022-09-13T16:03:42;3.10;;;2.83;;
7495;SDS011;3789;47.064;15.482;2022-09-13T16:06:09;3.17;;;2.90;;
7495;SDS011;3789;47.064;15.482;2022-09-13T16:08:36;3.70;;;3.40;;
7495;SDS011;3789;47.064;15.482;2022-09-13T16:11:04;3.88;;;3.47;;
7495;SDS011;3789;47.064;15.482;2022-09-13T16:13:33;12.60;;;4.40;;
7495;SDS011;3789;47.064;15.482;2022-09-13T16:16:02;7.50;;;3.45;;
7495;SDS011;3789;47.064;15.482;2022-09-13T16:18:30;7.07;;;2.90;;
7495;SDS011;3789;47.064;15.482;2022-09-13T16:20:57;2.97;;;2.72;;
7495;SDS011;3789;47.064;15.482;2022-09-13T16:23:24;4.50;;;3.15;;
7495;SDS011;3789;47.064;15.482;2022-09-13T16:25:53;3.95;;;3.20;;
7495;SDS011;3789;47.064;15.482;2022-09-13T16:28:23;5.35;;;3.20;;
7495;SDS011;3789;47.064;15.482;2022-09-13T16:30:50;3.55;;;3.25;;
7495;SDS011;3789;47.064;15.482;2022-09-13T16:33:18;7.32;;;3.20;;
7495;SDS011;3789;47.064;15.482;2022-09-13T16:35:46;3.20;;;2.85;;
7495;SDS011;3789;47.064;15.482;2022-09-13T16:38:13;5.47;;;3.42;;
7495;SDS011;3789;47.064;15.482;2022-09-13T16:40:40;4.45;;;3.35;;
7495;SDS011;3789;47.064;15.482;2022-09-13T16:43:08;4.25;;;2.90;;
7495;SDS011;3789;47.064;15.482;2022-09-13T16:45:37;3.63;;;3.13;;
7495;SDS011;3789;47.064;15.482;2022-09-13T16:48:06;3.28;;;2.90;;
7495;SDS011;3789;47.064;15.482;2022-09-13T16:50:34;4.63;;;2.83;;
7495;SDS011;3789;47.064;15.482;2022-09-13T16:53:04;3.30;;;3.00;;
7495;SDS011;3789;47.064;15.482;2022-09-13T16:55:31;3.10;;;2.90;;
7495;SDS011;3789;47.064;15.482;2022-09-13T16:57:58;3.72;;;2.83;;
7495;SDS011;3789;47.064;15.482;2022-09-13T17:00:25;3.40;;;3.10;;
7495;SDS011;3789;47.064;15.482;2022-09-13T17:02:54;3.13;;;2.83;;
7495;SDS011;3789;47.064;15.482;2022-09-13T17:05:22;3.25;;;2.40;;
7495;SDS011;3789;47.064;15.482;2022-09-13T17:07:50;3.70;;;2.92;;
7495;SDS011;3789;47.064;15.482;2022-09-13T17:10:18;5.72;;;3.35;;
7495;SDS011;3789;47.064;15.482;2022-09-13T17:13:07;3.72;;;3.10;;
7495;SDS011;3789;47.064;15.482;2022-09-13T17:15:43;3.70;;;3.33;;
7495;SDS011;3789;47.064;15.482;2022-09-13T17:18:10;3.58;;;3.28;;
7495;SDS011;3789;47.064;15.482;2022-09-13T17:20:44;4.13;;;3.05;;
7495;SDS011;3789;47.064;15.482;2022-09-13T17:23:15;3.97;;;3.58;;
7495;SDS011;3789;47.064;15.482;2022-09-13T17:25:45;5.05;;;3.40;;
7495;SDS011;3789;47.064;15.482;2022-09-13T17:28:17;5.55;;;3.38;;
7495;SDS011;3789;47.064;15.482;2022-09-13T17:30:45;4.03;;;3.20;;
7495;SDS011;3789;47.064;15.482;2022-09-13T17:33:12;3.63;;;3.30;;
7495;SDS011;3789;47.064;15.482;2022-09-13T17:35:39;5.13;;;3.67;;
7495;SDS011;3789;47.064;15.482;2022-09-13T17:38:09;3.42;;;3.13;;
7495;SDS011;3789;47.064;15.482;2022-09-13T17:40:36;4.38;;;3.28;;
7495;SDS011;3789;47.064;15.482;2022-09-13T17:43:03;5.97;;;3.17;;
7495;SDS011;3789;47.064;15.482;2022-09-13T17:45:31;3.65;;;3.25;;
7495;SDS011;3789;47.064;15.482;2022-09-13T17:47:59;4.05;;;3.47;;
7495;SDS011;3789;47.064;15.482;2022-09-13T17:50:26;4.65;;;3.67;;
7495;SDS011;3789;47.064;15.482;2022-09-13T17:52:53;3.78;;;3.45;;
7495;SDS011;3789;47.064;15.482;2022-09-13T17:55:21;4.25;;;3.75;;
7495;SDS011;3789;47.064;15.482;2022-09-13T17:57:48;4.07;;;3.75;;
7495;SDS011;3789;47.064;15.482;2022-09-13T18:00:15;6.05;;;4.28;;
7495;SDS011;3789;47.064;15.482;2022-09-13T18:02:46;5.15;;;3.67;;
7495;SDS011;3789;47.064;15.482;2022-09-13T18:05:15;4.22;;;3.83;;
7495;SDS011;3789;47.064;15.482;2022-09-13T18:07:52;4.40;;;3.80;;
7495;SDS011;3789;47.064;15.482;2022-09-13T18:10:19;4.72;;;4.30;;
7495;SDS011;3789;47.064;15.482;2022-09-13T18:13:07;4.68;;;4.18;;
7495;SDS011;3789;47.064;15.482;2022-09-13T18:15:37;5.10;;;4.18;;
7495;SDS011;3789;47.064;15.482;2022-09-13T18:18:04;3.67;;;3.35;;
7495;SDS011;3789;47.064;15.482;2022-09-13T18:20:31;5.22;;;3.78;;
7495;SDS011;3789;47.064;15.482;2022-09-13T18:23:05;3.80;;;3.50;;
7495;SDS011;3789;47.064;15.482;2022-09-13T18:25:34;3.95;;;3.65;;
7495;SDS011;3789;47.064;15.482;2022-09-13T18:28:01;3.75;;;3.45;;
7495;SDS011;3789;47.064;15.482;2022-09-13T18:30:28;4.00;;;3.65;;
7495;SDS011;3789;47.064;15.482;2022-09-13T18:32:56;3.67;;;3.38;;
7495;SDS011;3789;47.064;15.482;2022-09-13T18:35:24;4.20;;;3.45;;
7495;SDS011;3789;47.064;15.482;2022-09-13T18:37:52;3.70;;;3.20;;
7495;SDS011;3789;47.064;15.482;2022-09-13T18:40:20;4.25;;;3.70;;
7495;SDS011;3789;47.064;15.482;2022-09-13T18:42:48;4.25;;;3.80;;
7495;SDS011;3789;47.064;15.482;2022-09-13T18:45:17;3.92;;;3.30;;
7495;SDS011;3789;47.064;15.482;2022-09-13T18:47:45;4.05;;;3.65;;